sensor_id;sensor_type;location;lat;lon;timestamp;P1;durP1;ratioP1;P2;durP2;ratioP2
16403;SDS011;8311;50.158;8.642;2023-08-06T00:02:11;3.22;;;2.35;;
16403;SDS011;8311;50.158;8.642;2023-08-06T00:05:04;3.33;;;2.28;;
16403;SDS011;8311;50.158;8.642;2023-08-06T00:07:58;3.90;;;2.00;;
16403;SDS011;8311;50.158;8.642;2023-08-06T00:10:51;3.42;;;2.10;;
16403;SDS011;8311;50.158;8.642;2023-08-06T00:13:44;3.50;;;2.00;;
16403;SDS011;8311;50.158;8.642;2023-08-06T00:16:37;2.75;;;1.90;;
16403;SDS011;8311;50.158;8.642;2023-08-06T00:19:31;3.00;;;2.15;;
16403;SDS011;8311;50.158;8.642;2023-08-06T00:22:25;4.30;;;2.65;;
16403;SDS011;8311;50.158;8.642;2023-08-06T00:25:18;3.30;;;2.33;;
16403;SDS011;8311;50.158;8.642;2023-08-06T00:28:11;2.78;;;1.92;;
16403;SDS011;8311;50.158;8.642;2023-08-06T00:31:04;3.80;;;2.38;;
16403;SDS011;8311;50.158;8.642;2023-08-06T00:33:58;3.25;;;2.15;;
16403;SDS011;8311;50.158;8.642;2023-08-06T00:36:52;3.40;;;2.33;;
16403;SDS011;8311;50.158;8.642;2023-08-06T00:39:46;2.90;;;2.10;;
16403;SDS011;8311;50.158;8.642;2023-08-06T00:42:39;4.28;;;2.20;;
16403;SDS011;8311;50.158;8.642;2023-08-06T00:45:33;3.42;;;1.90;;
16403;SDS011;8311;50.158;8.642;2023-08-06T00:48:28;3.35;;;2.08;;
16403;SDS011;8311;50.158;8.642;2023-08-06T00:51:21;2.75;;;2.00;;
16403;SDS011;8311;50.158;8.642;2023-08-06T00:54:16;2.97;;;2.00;;
16403;SDS011;8311;50.158;8.642;2023-08-06T00:57:10;3.47;;;1.90;;
16403;SDS011;8311;50.158;8.642;2023-08-06T01:00:04;3.53;;;2.05;;
16403;SDS011;8311;50.158;8.642;2023-08-06T01:02:59;2.97;;;1.92;;
16403;SDS011;8311;50.158;8.642;2023-08-06T01:05:53;3.05;;;2.15;;
16403;SDS011;8311;50.158;8.642;2023-08-06T01:08:48;2.83;;;1.85;;
16403;SDS011;8311;50.158;8.642;2023-08-06T01:11:52;3.33;;;2.13;;
16403;SDS011;8311;50.158;8.642;2023-08-06T01:14:53;3.05;;;1.83;;
16403;SDS011;8311;50.158;8.642;2023-08-06T01:17:53;2.58;;;1.80;;
16403;SDS011;8311;50.158;8.642;2023-08-06T01:20:48;4.20;;;2.20;;
16403;SDS011;8311;50.158;8.642;2023-08-06T01:23:41;3.15;;;2.20;;
16403;SDS011;8311;50.158;8.642;2023-08-06T01:26:35;2.95;;;2.05;;
16403;SDS011;8311;50.158;8.642;2023-08-06T01:29:35;3.13;;;2.15;;
16403;SDS011;8311;50.158;8.642;2023-08-06T01:32:34;3.00;;;1.90;;
16403;SDS011;8311;50.158;8.642;2023-08-06T01:35:30;3.58;;;2.08;;
16403;SDS011;8311;50.158;8.642;2023-08-06T01:38:26;3.25;;;2.00;;
16403;SDS011;8311;50.158;8.642;2023-08-06T01:41:20;3.10;;;2.22;;
16403;SDS011;8311;50.158;8.642;2023-08-06T01:44:14;3.80;;;2.35;;
16403;SDS011;8311;50.158;8.642;2023-08-06T01:47:07;2.72;;;1.65;;
16403;SDS011;8311;50.158;8.642;2023-08-06T01:50:00;3.30;;;2.20;;
16403;SDS011;8311;50.158;8.642;2023-08-06T01:52:54;2.67;;;1.92;;
16403;SDS011;8311;50.158;8.642;2023-08-06T01:55:49;4.05;;;2.08;;
16403;SDS011;8311;50.158;8.642;2023-08-06T01:58:42;3.25;;;2.03;;
16403;SDS011;8311;50.158;8.642;2023-08-06T02:01:35;3.30;;;2.10;;
16403;SDS011;8311;50.158;8.642;2023-08-06T02:04:28;3.50;;;1.95;;
16403;SDS011;8311;50.158;8.642;2023-08-06T02:07:21;2.28;;;1.75;;
16403;SDS011;8311;50.158;8.642;2023-08-06T02:10:14;3.88;;;1.90;;
16403;SDS011;8311;50.158;8.642;2023-08-06T02:13:08;3.60;;;2.10;;
16403;SDS011;8311;50.158;8.642;2023-08-06T02:16:02;6.63;;;1.88;;
16403;SDS011;8311;50.158;8.642;2023-08-06T02:18:56;2.15;;;1.77;;
16403;SDS011;8311;50.158;8.642;2023-08-06T02:21:50;2.15;;;1.65;;
16403;SDS011;8311;50.158;8.642;2023-08-06T02:24:43;2.83;;;2.03;;
16403;SDS011;8311;50.158;8.642;2023-08-06T02:27:36;2.53;;;2.05;;
16403;SDS011;8311;50.158;8.642;2023-08-06T02:30:31;3.08;;;1.98;;
16403;SDS011;8311;50.158;8.642;2023-08-06T02:33:25;3.20;;;1.98;;
16403;SDS011;8311;50.158;8.642;2023-08-06T02:36:18;2.63;;;1.77;;
16403;SDS011;8311;50.158;8.642;2023-08-06T02:39:11;2.78;;;2.00;;
16403;SDS011;8311;50.158;8.642;2023-08-06T02:42:05;4.05;;;1.90;;
16403;SDS011;8311;50.158;8.642;2023-08-06T02:44:58;2.40;;;1.80;;
16403;SDS011;8311;50.158;8.642;2023-08-06T02:47:53;2.35;;;1.70;;
16403;SDS011;8311;50.158;8.642;2023-08-06T02:50:46;2.80;;;1.80;;
16403;SDS011;8311;50.158;8.642;2023-08-06T02:53:39;2.20;;;1.60;;
16403;SDS011;8311;50.158;8.642;2023-08-06T02:56:32;2.83;;;1.65;;
16403;SDS011;8311;50.158;8.642;2023-08-06T02:59:26;3.55;;;1.90;;
16403;SDS011;8311;50.158;8.642;2023-08-06T03:02:20;2.45;;;1.90;;
16403;SDS011;8311;50.158;8.642;2023-08-06T03:05:14;1.92;;;1.67;;
16403;SDS011;8311;50.158;8.642;2023-08-06T03:08:08;2.22;;;1.70;;
16403;SDS011;8311;50.158;8.642;2023-08-06T03:11:01;3.10;;;2.00;;
16403;SDS011;8311;50.158;8.642;2023-08-06T03:13:54;2.63;;;1.70;;
16403;SDS011;8311;50.158;8.642;2023-08-06T03:16:47;2.78;;;2.00;;
16403;SDS011;8311;50.158;8.642;2023-08-06T03:19:40;1.83;;;1.40;;
16403;SDS011;8311;50.158;8.642;2023-08-06T03:22:34;1.88;;;1.58;;
16403;SDS011;8311;50.158;8.642;2023-08-06T03:25:27;2.25;;;1.80;;
16403;SDS011;8311;50.158;8.642;2023-08-06T03:28:21;1.98;;;1.67;;
16403;SDS011;8311;50.158;8.642;2023-08-06T03:31:14;2.72;;;1.70;;
16403;SDS011;8311;50.158;8.642;2023-08-06T03:34:08;3.20;;;1.85;;
16403;SDS011;8311;50.158;8.642;2023-08-06T03:37:01;2.67;;;1.90;;
16403;SDS011;8311;50.158;8.642;2023-08-06T03:39:56;3.55;;;1.67;;
16403;SDS011;8311;50.158;8.642;2023-08-06T03:42:49;2.38;;;1.73;;
16403;SDS011;8311;50.158;8.642;2023-08-06T03:45:42;2.42;;;1.70;;
16403;SDS011;8311;50.158;8.642;2023-08-06T03:48:35;2.22;;;1.67;;
16403;SDS011;8311;50.158;8.642;2023-08-06T03:51:28;2.13;;;1.70;;
16403;SDS011;8311;50.158;8.642;2023-08-06T03:54:21;2.67;;;1.60;;
16403;SDS011;8311;50.158;8.642;2023-08-06T03:57:16;1.75;;;1.50;;
16403;SDS011;8311;50.158;8.642;2023-08-06T04:00:10;2.60;;;1.65;;
16403;SDS011;8311;50.158;8.642;2023-08-06T04:03:04;2.80;;;2.05;;
16403;SDS011;8311;50.158;8.642;2023-08-06T04:05:58;1.60;;;1.40;;
16403;SDS011;8311;50.158;8.642;2023-08-06T04:08:52;2.28;;;1.75;;
16403;SDS011;8311;50.158;8.642;2023-08-06T04:11:45;2.22;;;1.52;;
16403;SDS011;8311;50.158;8.642;2023-08-06T04:14:40;2.15;;;1.70;;
16403;SDS011;8311;50.158;8.642;2023-08-06T04:17:33;2.28;;;1.55;;
16403;SDS011;8311;50.158;8.642;2023-08-06T04:20:26;1.77;;;1.52;;
16403;SDS011;8311;50.158;8.642;2023-08-06T04:23:20;2.03;;;1.73;;
16403;SDS011;8311;50.158;8.642;2023-08-06T04:26:13;2.90;;;1.58;;
16403;SDS011;8311;50.158;8.642;2023-08-06T04:29:07;1.58;;;1.20;;
16403;SDS011;8311;50.158;8.642;2023-08-06T04:32:03;2.35;;;1.73;;
16403;SDS011;8311;50.158;8.642;2023-08-06T04:34:57;2.67;;;1.65;;
16403;SDS011;8311;50.158;8.642;2023-08-06T04:37:50;1.95;;;1.45;;
16403;SDS011;8311;50.158;8.642;2023-08-06T04:40:43;2.50;;;1.73;;
16403;SDS011;8311;50.158;8.642;2023-08-06T04:43:37;2.78;;;1.90;;
16403;SDS011;8311;50.158;8.642;2023-08-06T04:46:30;1.52;;;1.42;;
16403;SDS011;8311;50.158;8.642;2023-08-06T04:49:25;2.28;;;1.63;;
16403;SDS011;8311;50.158;8.642;2023-08-06T04:52:18;2.05;;;1.58;;
16403;SDS011;8311;50.158;8.642;2023-08-06T04:55:11;3.10;;;1.88;;
16403;SDS011;8311;50.158;8.642;2023-08-06T04:58:04;2.35;;;1.80;;
16403;SDS011;8311;50.158;8.642;2023-08-06T05:00:57;2.83;;;1.70;;
16403;SDS011;8311;50.158;8.642;2023-08-06T05:03:50;1.70;;;1.55;;
16403;SDS011;8311;50.158;8.642;2023-08-06T05:06:45;3.72;;;1.70;;
16403;SDS011;8311;50.158;8.642;2023-08-06T05:09:38;2.10;;;1.80;;
16403;SDS011;8311;50.158;8.642;2023-08-06T05:12:31;2.58;;;1.80;;
16403;SDS011;8311;50.158;8.642;2023-08-06T05:15:24;2.65;;;1.85;;
16403;SDS011;8311;50.158;8.642;2023-08-06T05:18:17;2.33;;;1.70;;
16403;SDS011;8311;50.158;8.642;2023-08-06T05:21:10;1.67;;;1.50;;
16403;SDS011;8311;50.158;8.642;2023-08-06T05:24:05;1.80;;;1.45;;
16403;SDS011;8311;50.158;8.642;2023-08-06T05:26:58;2.20;;;1.60;;
16403;SDS011;8311;50.158;8.642;2023-08-06T05:29:54;2.03;;;1.52;;
16403;SDS011;8311;50.158;8.642;2023-08-06T05:32:48;3.25;;;1.63;;
16403;SDS011;8311;50.158;8.642;2023-08-06T05:35:41;2.30;;;1.58;;
16403;SDS011;8311;50.158;8.642;2023-08-06T05:38:35;1.83;;;1.50;;
16403;SDS011;8311;50.158;8.642;2023-08-06T05:41:30;2.38;;;1.90;;
16403;SDS011;8311;50.158;8.642;2023-08-06T05:44:24;2.88;;;2.00;;
16403;SDS011;8311;50.158;8.642;2023-08-06T05:47:17;2.08;;;1.73;;
16403;SDS011;8311;50.158;8.642;2023-08-06T05:50:11;2.47;;;1.48;;
16403;SDS011;8311;50.158;8.642;2023-08-06T05:53:04;2.45;;;1.50;;
16403;SDS011;8311;50.158;8.642;2023-08-06T05:55:58;2.67;;;1.60;;
16403;SDS011;8311;50.158;8.642;2023-08-06T05:58:52;2.03;;;1.30;;
16403;SDS011;8311;50.158;8.642;2023-08-06T06:01:46;2.25;;;1.45;;
16403;SDS011;8311;50.158;8.642;2023-08-06T06:04:40;1.98;;;1.42;;
16403;SDS011;8311;50.158;8.642;2023-08-06T06:07:33;2.03;;;1.60;;
16403;SDS011;8311;50.158;8.642;2023-08-06T06:10:26;3.13;;;1.70;;
16403;SDS011;8311;50.158;8.642;2023-08-06T06:13:19;2.10;;;1.30;;
16403;SDS011;8311;50.158;8.642;2023-08-06T06:16:14;2.80;;;1.60;;
16403;SDS011;8311;50.158;8.642;2023-08-06T06:19:07;2.30;;;1.67;;
16403;SDS011;8311;50.158;8.642;2023-08-06T06:22:00;3.08;;;1.80;;
16403;SDS011;8311;50.158;8.642;2023-08-06T06:24:53;2.13;;;1.30;;
16403;SDS011;8311;50.158;8.642;2023-08-06T06:27:46;2.70;;;1.60;;
16403;SDS011;8311;50.158;8.642;2023-08-06T06:30:40;1.73;;;1.30;;
16403;SDS011;8311;50.158;8.642;2023-08-06T06:33:36;2.70;;;1.50;;
16403;SDS011;8311;50.158;8.642;2023-08-06T06:36:29;3.75;;;1.45;;
16403;SDS011;8311;50.158;8.642;2023-08-06T06:39:23;1.50;;;1.13;;
16403;SDS011;8311;50.158;8.642;2023-08-06T06:42:16;3.20;;;1.55;;
16403;SDS011;8311;50.158;8.642;2023-08-06T06:45:12;1.98;;;1.27;;
16403;SDS011;8311;50.158;8.642;2023-08-06T06:48:05;4.50;;;1.30;;
16403;SDS011;8311;50.158;8.642;2023-08-06T06:51:00;1.10;;;1.00;;
16403;SDS011;8311;50.158;8.642;2023-08-06T06:53:53;2.40;;;1.40;;
16403;SDS011;8311;50.158;8.642;2023-08-06T06:56:46;2.78;;;1.30;;
16403;SDS011;8311;50.158;8.642;2023-08-06T06:59:39;2.38;;;1.17;;
16403;SDS011;8311;50.158;8.642;2023-08-06T07:02:33;1.58;;;1.30;;
16403;SDS011;8311;50.158;8.642;2023-08-06T07:05:26;2.10;;;1.33;;
16403;SDS011;8311;50.158;8.642;2023-08-06T07:08:21;2.78;;;1.30;;
16403;SDS011;8311;50.158;8.642;2023-08-06T07:11:14;1.17;;;0.98;;
16403;SDS011;8311;50.158;8.642;2023-08-06T07:14:07;2.83;;;1.15;;
16403;SDS011;8311;50.158;8.642;2023-08-06T07:17:00;2.55;;;1.23;;
16403;SDS011;8311;50.158;8.642;2023-08-06T07:19:53;3.92;;;0.95;;
16403;SDS011;8311;50.158;8.642;2023-08-06T07:22:46;1.52;;;1.10;;
16403;SDS011;8311;50.158;8.642;2023-08-06T07:25:42;2.30;;;1.25;;
16403;SDS011;8311;50.158;8.642;2023-08-06T07:28:35;1.85;;;1.05;;
16403;SDS011;8311;50.158;8.642;2023-08-06T07:31:29;1.67;;;0.93;;
16403;SDS011;8311;50.158;8.642;2023-08-06T07:34:22;3.28;;;0.88;;
16403;SDS011;8311;50.158;8.642;2023-08-06T07:37:15;1.48;;;0.75;;
16403;SDS011;8311;50.158;8.642;2023-08-06T07:40:10;1.88;;;0.93;;
16403;SDS011;8311;50.158;8.642;2023-08-06T07:43:05;1.85;;;0.90;;
16403;SDS011;8311;50.158;8.642;2023-08-06T07:45:58;1.63;;;0.98;;
16403;SDS011;8311;50.158;8.642;2023-08-06T07:48:52;1.23;;;0.82;;
16403;SDS011;8311;50.158;8.642;2023-08-06T07:51:46;2.17;;;0.88;;
16403;SDS011;8311;50.158;8.642;2023-08-06T07:54:38;1.77;;;0.93;;
16403;SDS011;8311;50.158;8.642;2023-08-06T07:57:31;1.15;;;0.70;;
16403;SDS011;8311;50.158;8.642;2023-08-06T08:00:27;1.55;;;0.90;;
16403;SDS011;8311;50.158;8.642;2023-08-06T08:03:21;0.77;;;0.60;;
16403;SDS011;8311;50.158;8.642;2023-08-06T08:06:14;1.40;;;0.75;;
16403;SDS011;8311;50.158;8.642;2023-08-06T08:09:07;0.90;;;0.75;;
16403;SDS011;8311;50.158;8.642;2023-08-06T08:12:00;0.88;;;0.68;;
16403;SDS011;8311;50.158;8.642;2023-08-06T08:14:55;1.23;;;0.57;;
16403;SDS011;8311;50.158;8.642;2023-08-06T08:17:48;0.77;;;0.68;;
16403;SDS011;8311;50.158;8.642;2023-08-06T08:20:41;0.95;;;0.75;;
16403;SDS011;8311;50.158;8.642;2023-08-06T08:23:34;2.35;;;0.68;;
16403;SDS011;8311;50.158;8.642;2023-08-06T08:26:28;1.02;;;0.57;;
16403;SDS011;8311;50.158;8.642;2023-08-06T08:29:21;1.15;;;0.77;;
16403;SDS011;8311;50.158;8.642;2023-08-06T08:32:15;0.68;;;0.60;;
16403;SDS011;8311;50.158;8.642;2023-08-06T08:35:10;1.30;;;0.60;;
16403;SDS011;8311;50.158;8.642;2023-08-06T08:38:03;1.75;;;0.50;;
16403;SDS011;8311;50.158;8.642;2023-08-06T08:40:56;2.00;;;0.60;;
16403;SDS011;8311;50.158;8.642;2023-08-06T08:43:50;1.75;;;0.70;;
16403;SDS011;8311;50.158;8.642;2023-08-06T08:46:43;2.00;;;0.80;;
16403;SDS011;8311;50.158;8.642;2023-08-06T08:49:38;1.55;;;0.70;;
16403;SDS011;8311;50.158;8.642;2023-08-06T08:52:34;1.17;;;0.65;;
16403;SDS011;8311;50.158;8.642;2023-08-06T08:55:28;2.03;;;0.63;;
16403;SDS011;8311;50.158;8.642;2023-08-06T08:58:21;1.20;;;0.73;;
16403;SDS011;8311;50.158;8.642;2023-08-06T09:01:15;2.35;;;0.80;;
16403;SDS011;8311;50.158;8.642;2023-08-06T09:04:09;0.82;;;0.60;;
16403;SDS011;8311;50.158;8.642;2023-08-06T09:07:04;1.65;;;0.73;;
16403;SDS011;8311;50.158;8.642;2023-08-06T09:10:02;1.10;;;0.70;;
16403;SDS011;8311;50.158;8.642;2023-08-06T09:12:57;2.22;;;0.50;;
16403;SDS011;8311;50.158;8.642;2023-08-06T09:15:50;0.65;;;0.50;;
16403;SDS011;8311;50.158;8.642;2023-08-06T09:18:43;3.05;;;0.80;;
16403;SDS011;8311;50.158;8.642;2023-08-06T09:21:37;0.95;;;0.68;;
16403;SDS011;8311;50.158;8.642;2023-08-06T09:24:30;3.55;;;1.00;;
16403;SDS011;8311;50.158;8.642;2023-08-06T09:27:25;1.88;;;0.80;;
16403;SDS011;8311;50.158;8.642;2023-08-06T09:30:28;0.80;;;0.70;;
16403;SDS011;8311;50.158;8.642;2023-08-06T09:33:22;1.10;;;0.60;;
16403;SDS011;8311;50.158;8.642;2023-08-06T09:36:15;1.35;;;0.70;;
16403;SDS011;8311;50.158;8.642;2023-08-06T09:39:13;2.58;;;0.75;;
16403;SDS011;8311;50.158;8.642;2023-08-06T09:42:06;1.25;;;0.70;;
16403;SDS011;8311;50.158;8.642;2023-08-06T09:45:06;1.02;;;0.60;;
16403;SDS011;8311;50.158;8.642;2023-08-06T09:47:59;0.55;;;0.45;;
16403;SDS011;8311;50.158;8.642;2023-08-06T09:50:55;0.50;;;0.50;;
16403;SDS011;8311;50.158;8.642;2023-08-06T09:53:49;0.52;;;0.50;;
16403;SDS011;8311;50.158;8.642;2023-08-06T09:56:43;0.52;;;0.47;;
16403;SDS011;8311;50.158;8.642;2023-08-06T09:59:37;1.52;;;1.02;;
16403;SDS011;8311;50.158;8.642;2023-08-06T10:02:33;0.52;;;0.47;;
16403;SDS011;8311;50.158;8.642;2023-08-06T10:05:27;2.22;;;0.60;;
16403;SDS011;8311;50.158;8.642;2023-08-06T10:08:23;1.38;;;0.55;;
16403;SDS011;8311;50.158;8.642;2023-08-06T10:11:17;0.60;;;0.40;;
16403;SDS011;8311;50.158;8.642;2023-08-06T10:14:13;0.82;;;0.57;;
16403;SDS011;8311;50.158;8.642;2023-08-06T10:17:08;1.40;;;0.63;;
16403;SDS011;8311;50.158;8.642;2023-08-06T10:20:03;0.75;;;0.50;;
16403;SDS011;8311;50.158;8.642;2023-08-06T10:23:02;1.48;;;0.80;;
16403;SDS011;8311;50.158;8.642;2023-08-06T10:25:55;1.40;;;0.70;;
16403;SDS011;8311;50.158;8.642;2023-08-06T10:28:48;0.77;;;0.55;;
16403;SDS011;8311;50.158;8.642;2023-08-06T10:31:54;2.70;;;0.60;;
16403;SDS011;8311;50.158;8.642;2023-08-06T10:34:54;1.13;;;0.52;;
16403;SDS011;8311;50.158;8.642;2023-08-06T10:37:50;1.75;;;0.50;;
16403;SDS011;8311;50.158;8.642;2023-08-06T10:40:48;2.33;;;0.77;;
16403;SDS011;8311;50.158;8.642;2023-08-06T10:43:41;1.40;;;0.63;;
16403;SDS011;8311;50.158;8.642;2023-08-06T10:46:37;1.60;;;0.70;;
16403;SDS011;8311;50.158;8.642;2023-08-06T10:49:31;0.98;;;0.45;;
16403;SDS011;8311;50.158;8.642;2023-08-06T10:52:24;1.30;;;0.57;;
16403;SDS011;8311;50.158;8.642;2023-08-06T10:55:26;1.02;;;0.65;;
16403;SDS011;8311;50.158;8.642;2023-08-06T10:58:21;0.93;;;0.52;;
16403;SDS011;8311;50.158;8.642;2023-08-06T11:01:15;0.47;;;0.40;;
16403;SDS011;8311;50.158;8.642;2023-08-06T11:04:08;0.82;;;0.32;;
16403;SDS011;8311;50.158;8.642;2023-08-06T11:07:08;1.58;;;0.70;;
16403;SDS011;8311;50.158;8.642;2023-08-06T11:10:01;0.43;;;0.43;;
16403;SDS011;8311;50.158;8.642;2023-08-06T11:13:01;1.48;;;0.60;;
16403;SDS011;8311;50.158;8.642;2023-08-06T11:15:54;1.17;;;0.60;;
16403;SDS011;8311;50.158;8.642;2023-08-06T11:18:50;0.50;;;0.50;;
16403;SDS011;8311;50.158;8.642;2023-08-06T11:21:44;0.68;;;0.50;;
16403;SDS011;8311;50.158;8.642;2023-08-06T11:24:38;0.73;;;0.50;;
16403;SDS011;8311;50.158;8.642;2023-08-06T11:27:32;0.90;;;0.50;;
16403;SDS011;8311;50.158;8.642;2023-08-06T11:30:27;1.60;;;0.55;;
16403;SDS011;8311;50.158;8.642;2023-08-06T11:33:20;0.63;;;0.45;;
16403;SDS011;8311;50.158;8.642;2023-08-06T11:36:17;1.40;;;0.60;;
16403;SDS011;8311;50.158;8.642;2023-08-06T11:39:21;0.80;;;0.70;;
16403;SDS011;8311;50.158;8.642;2023-08-06T11:42:15;0.50;;;0.40;;
16403;SDS011;8311;50.158;8.642;2023-08-06T11:45:08;1.30;;;0.70;;
16403;SDS011;8311;50.158;8.642;2023-08-06T11:48:03;0.43;;;0.40;;
16403;SDS011;8311;50.158;8.642;2023-08-06T11:50:56;0.85;;;0.40;;
16403;SDS011;8311;50.158;8.642;2023-08-06T11:53:49;0.70;;;0.40;;
16403;SDS011;8311;50.158;8.642;2023-08-06T11:56:44;0.68;;;0.40;;
16403;SDS011;8311;50.158;8.642;2023-08-06T11:59:39;0.35;;;0.35;;
16403;SDS011;8311;50.158;8.642;2023-08-06T12:02:33;0.55;;;0.40;;
16403;SDS011;8311;50.158;8.642;2023-08-06T12:05:30;0.40;;;0.40;;
16403;SDS011;8311;50.158;8.642;2023-08-06T12:08:26;0.60;;;0.50;;
16403;SDS011;8311;50.158;8.642;2023-08-06T12:11:20;0.55;;;0.50;;
16403;SDS011;8311;50.158;8.642;2023-08-06T12:14:13;1.27;;;0.40;;
16403;SDS011;8311;50.158;8.642;2023-08-06T12:17:06;2.25;;;0.65;;
16403;SDS011;8311;50.158;8.642;2023-08-06T12:20:00;1.00;;;0.50;;
16403;SDS011;8311;50.158;8.642;2023-08-06T12:22:55;2.05;;;0.50;;
16403;SDS011;8311;50.158;8.642;2023-08-06T12:25:49;1.42;;;0.70;;
16403;SDS011;8311;50.158;8.642;2023-08-06T12:28:41;0.63;;;0.50;;
16403;SDS011;8311;50.158;8.642;2023-08-06T12:31:35;0.60;;;0.40;;
16403;SDS011;8311;50.158;8.642;2023-08-06T12:34:29;0.55;;;0.50;;
16403;SDS011;8311;50.158;8.642;2023-08-06T12:37:41;1.05;;;0.50;;
16403;SDS011;8311;50.158;8.642;2023-08-06T12:40:37;0.30;;;0.30;;
16403;SDS011;8311;50.158;8.642;2023-08-06T12:43:33;0.68;;;0.47;;
16403;SDS011;8311;50.158;8.642;2023-08-06T12:46:27;0.98;;;0.40;;
16403;SDS011;8311;50.158;8.642;2023-08-06T12:49:24;0.77;;;0.40;;
16403;SDS011;8311;50.158;8.642;2023-08-06T12:52:18;0.85;;;0.55;;
16403;SDS011;8311;50.158;8.642;2023-08-06T12:55:11;1.77;;;0.60;;
16403;SDS011;8311;50.158;8.642;2023-08-06T12:58:05;0.95;;;0.55;;
16403;SDS011;8311;50.158;8.642;2023-08-06T13:00:59;0.82;;;0.50;;
16403;SDS011;8311;50.158;8.642;2023-08-06T13:03:52;0.40;;;0.40;;
16403;SDS011;8311;50.158;8.642;2023-08-06T13:07:01;0.82;;;0.50;;
16403;SDS011;8311;50.158;8.642;2023-08-06T13:09:55;0.80;;;0.40;;
16403;SDS011;8311;50.158;8.642;2023-08-06T13:12:49;1.20;;;0.50;;
16403;SDS011;8311;50.158;8.642;2023-08-06T13:15:43;1.27;;;0.50;;
16403;SDS011;8311;50.158;8.642;2023-08-06T13:18:37;1.90;;;0.52;;
16403;SDS011;8311;50.158;8.642;2023-08-06T13:21:31;0.68;;;0.38;;
16403;SDS011;8311;50.158;8.642;2023-08-06T13:24:25;0.73;;;0.40;;
16403;SDS011;8311;50.158;8.642;2023-08-06T13:27:20;3.90;;;0.60;;
16403;SDS011;8311;50.158;8.642;2023-08-06T13:30:14;1.02;;;0.55;;
16403;SDS011;8311;50.158;8.642;2023-08-06T13:33:09;0.50;;;0.40;;
16403;SDS011;8311;50.158;8.642;2023-08-06T13:36:02;0.43;;;0.43;;
16403;SDS011;8311;50.158;8.642;2023-08-06T13:38:56;0.95;;;0.52;;
16403;SDS011;8311;50.158;8.642;2023-08-06T13:41:49;1.50;;;0.60;;
16403;SDS011;8311;50.158;8.642;2023-08-06T13:44:43;0.50;;;0.50;;
16403;SDS011;8311;50.158;8.642;2023-08-06T13:47:36;0.70;;;0.57;;
16403;SDS011;8311;50.158;8.642;2023-08-06T13:50:31;0.50;;;0.50;;
16403;SDS011;8311;50.158;8.642;2023-08-06T13:53:25;0.50;;;0.40;;
16403;SDS011;8311;50.158;8.642;2023-08-06T13:56:22;0.60;;;0.45;;
16403;SDS011;8311;50.158;8.642;2023-08-06T13:59:16;0.50;;;0.40;;
16403;SDS011;8311;50.158;8.642;2023-08-06T14:02:11;2.17;;;0.60;;
16403;SDS011;8311;50.158;8.642;2023-08-06T14:05:05;0.82;;;0.70;;
16403;SDS011;8311;50.158;8.642;2023-08-06T14:08:03;0.55;;;0.50;;
16403;SDS011;8311;50.158;8.642;2023-08-06T14:10:56;0.40;;;0.40;;
16403;SDS011;8311;50.158;8.642;2023-08-06T14:13:49;0.77;;;0.40;;
16403;SDS011;8311;50.158;8.642;2023-08-06T14:16:43;0.50;;;0.47;;
16403;SDS011;8311;50.158;8.642;2023-08-06T14:19:36;1.48;;;0.50;;
16403;SDS011;8311;50.158;8.642;2023-08-06T14:22:29;0.40;;;0.40;;
16403;SDS011;8311;50.158;8.642;2023-08-06T14:25:24;1.25;;;0.47;;
16403;SDS011;8311;50.158;8.642;2023-08-06T14:28:17;0.65;;;0.60;;
16403;SDS011;8311;50.158;8.642;2023-08-06T14:31:11;1.25;;;0.35;;
16403;SDS011;8311;50.158;8.642;2023-08-06T14:34:05;0.77;;;0.50;;
16403;SDS011;8311;50.158;8.642;2023-08-06T14:36:59;0.63;;;0.38;;
16403;SDS011;8311;50.158;8.642;2023-08-06T14:39:52;0.95;;;0.57;;
16403;SDS011;8311;50.158;8.642;2023-08-06T14:42:46;0.52;;;0.40;;
16403;SDS011;8311;50.158;8.642;2023-08-06T14:45:40;0.73;;;0.55;;
16403;SDS011;8311;50.158;8.642;2023-08-06T14:48:34;0.50;;;0.50;;
16403;SDS011;8311;50.158;8.642;2023-08-06T14:51:27;1.13;;;0.50;;
16403;SDS011;8311;50.158;8.642;2023-08-06T14:54:21;0.50;;;0.50;;
16403;SDS011;8311;50.158;8.642;2023-08-06T14:57:15;0.68;;;0.50;;
16403;SDS011;8311;50.158;8.642;2023-08-06T15:00:10;0.70;;;0.40;;
16403;SDS011;8311;50.158;8.642;2023-08-06T15:03:04;0.75;;;0.40;;
16403;SDS011;8311;50.158;8.642;2023-08-06T15:05:57;1.10;;;0.50;;
16403;SDS011;8311;50.158;8.642;2023-08-06T15:08:50;0.30;;;0.30;;
16403;SDS011;8311;50.158;8.642;2023-08-06T15:11:43;0.82;;;0.45;;
16403;SDS011;8311;50.158;8.642;2023-08-06T15:14:36;0.80;;;0.40;;
16403;SDS011;8311;50.158;8.642;2023-08-06T15:17:30;0.70;;;0.45;;
16403;SDS011;8311;50.158;8.642;2023-08-06T15:20:24;0.40;;;0.40;;
16403;SDS011;8311;50.158;8.642;2023-08-06T15:23:17;2.20;;;0.73;;
16403;SDS011;8311;50.158;8.642;2023-08-06T15:26:11;1.13;;;0.50;;
16403;SDS011;8311;50.158;8.642;2023-08-06T15:29:04;0.85;;;0.65;;
16403;SDS011;8311;50.158;8.642;2023-08-06T15:31:58;1.30;;;0.50;;
16403;SDS011;8311;50.158;8.642;2023-08-06T15:34:52;0.60;;;0.50;;
16403;SDS011;8311;50.158;8.642;2023-08-06T15:37:46;0.45;;;0.32;;
16403;SDS011;8311;50.158;8.642;2023-08-06T15:40:39;0.40;;;0.40;;
16403;SDS011;8311;50.158;8.642;2023-08-06T15:43:33;1.08;;;0.50;;
16403;SDS011;8311;50.158;8.642;2023-08-06T15:46:26;1.25;;;0.47;;
16403;SDS011;8311;50.158;8.642;2023-08-06T15:49:20;0.50;;;0.50;;
16403;SDS011;8311;50.158;8.642;2023-08-06T15:52:15;1.15;;;0.52;;
16403;SDS011;8311;50.158;8.642;2023-08-06T15:55:09;3.08;;;0.70;;
16403;SDS011;8311;50.158;8.642;2023-08-06T15:58:02;1.38;;;0.60;;
16403;SDS011;8311;50.158;8.642;2023-08-06T16:00:55;1.48;;;0.55;;
16403;SDS011;8311;50.158;8.642;2023-08-06T16:03:48;2.50;;;0.60;;
16403;SDS011;8311;50.158;8.642;2023-08-06T16:06:43;1.77;;;0.57;;
16403;SDS011;8311;50.158;8.642;2023-08-06T16:09:38;0.98;;;0.43;;
16403;SDS011;8311;50.158;8.642;2023-08-06T16:12:32;2.60;;;0.70;;
16403;SDS011;8311;50.158;8.642;2023-08-06T16:15:25;1.33;;;0.60;;
16403;SDS011;8311;50.158;8.642;2023-08-06T16:18:18;0.98;;;0.50;;
16403;SDS011;8311;50.158;8.642;2023-08-06T16:21:11;1.98;;;0.70;;
16403;SDS011;8311;50.158;8.642;2023-08-06T16:24:04;1.13;;;0.60;;
16403;SDS011;8311;50.158;8.642;2023-08-06T16:26:58;1.83;;;0.70;;
16403;SDS011;8311;50.158;8.642;2023-08-06T16:29:52;3.20;;;0.63;;
16403;SDS011;8311;50.158;8.642;2023-08-06T16:32:46;1.73;;;0.68;;
16403;SDS011;8311;50.158;8.642;2023-08-06T16:35:40;2.85;;;0.75;;
16403;SDS011;8311;50.158;8.642;2023-08-06T16:38:34;0.70;;;0.50;;
16403;SDS011;8311;50.158;8.642;2023-08-06T16:41:27;3.30;;;0.63;;
16403;SDS011;8311;50.158;8.642;2023-08-06T16:44:22;4.85;;;0.90;;
16403;SDS011;8311;50.158;8.642;2023-08-06T16:47:16;2.65;;;0.90;;
16403;SDS011;8311;50.158;8.642;2023-08-06T16:50:09;2.90;;;0.82;;
16403;SDS011;8311;50.158;8.642;2023-08-06T16:53:02;1.42;;;0.60;;
16403;SDS011;8311;50.158;8.642;2023-08-06T16:55:56;3.65;;;1.10;;
16403;SDS011;8311;50.158;8.642;2023-08-06T16:58:50;1.02;;;0.60;;
16403;SDS011;8311;50.158;8.642;2023-08-06T17:01:44;0.98;;;0.50;;
16403;SDS011;8311;50.158;8.642;2023-08-06T17:04:38;2.08;;;0.70;;
16403;SDS011;8311;50.158;8.642;2023-08-06T17:07:31;7.00;;;1.25;;
16403;SDS011;8311;50.158;8.642;2023-08-06T17:10:23;3.35;;;0.52;;
16403;SDS011;8311;50.158;8.642;2023-08-06T17:13:17;1.00;;;0.60;;
16403;SDS011;8311;50.158;8.642;2023-08-06T17:16:12;4.90;;;1.00;;
16403;SDS011;8311;50.158;8.642;2023-08-06T17:19:06;1.40;;;0.47;;
16403;SDS011;8311;50.158;8.642;2023-08-06T17:22:00;1.58;;;0.50;;
16403;SDS011;8311;50.158;8.642;2023-08-06T17:24:53;1.60;;;0.80;;
16403;SDS011;8311;50.158;8.642;2023-08-06T17:27:46;2.83;;;0.85;;
16403;SDS011;8311;50.158;8.642;2023-08-06T17:30:39;0.93;;;0.60;;
16403;SDS011;8311;50.158;8.642;2023-08-06T17:33:33;0.47;;;0.47;;
16403;SDS011;8311;50.158;8.642;2023-08-06T17:36:27;1.25;;;0.60;;
16403;SDS011;8311;50.158;8.642;2023-08-06T17:39:21;2.67;;;0.80;;
16403;SDS011;8311;50.158;8.642;2023-08-06T17:42:14;2.45;;;0.60;;
16403;SDS011;8311;50.158;8.642;2023-08-06T17:45:07;1.73;;;0.75;;